Flight Track Log - Related Links

Times and Time Zones

All times are in EST time to prevent confusion due to time zone crossing. See the N1735E flight status page for this flight to view local times or setup timezone preferences in your user account.

Time Position Orientation Groundspeed Altitude Reporting Facility
EST Latitude Longitude Course Direction KTS MPH feet Rate Location/Type
Mon 03:05:22 PM 27.4000 -82.5667 360° North 158 182 500  Level Tampa TRACON
Mon 03:06:16 PM 27.4500 -82.5667 360° North 146 168 1,600 1,111 Climbing Tampa TRACON
Mon 03:07:10 PM 27.4833 -82.5500 24° Northeast 157 181 2,500 947 Climbing Tampa TRACON
Mon 03:08:10 PM 27.5000 -82.5167 61° Northeast 165 190 3,400 952 Climbing Tampa TRACON
Mon 03:09:16 PM 27.5500 -82.4667 42° Northeast 163 188 4,500 803 Climbing Tampa TRACON
Mon 03:10:17 PM 27.5833 -82.4333 42° Northeast 175 201 5,100 248 Climbing Tampa TRACON
Mon 03:11:17 PM 27.6167 -82.4000 42° Northeast 207 238 5,000 -50 Descending Tampa TRACON
Mon 03:12:16 PM 27.6667 -82.3667 31° Northeast 199 229 5,000 96 Level Tampa TRACON
Mon 03:13:22 PM 27.7167 -82.3167 42° Northeast 200 230 5,200 429 Climbing Tampa TRACON
Mon 03:14:22 PM 27.7667 -82.3000 16° North 176 203 5,900 661 Climbing Tampa TRACON
Mon 03:15:11 PM 27.8000 -82.2667 41° Northeast 176 203 6,400 522 Climbing Tampa TRACON
Mon 03:16:17 PM 27.8500 -82.2333 31° Northeast 182 209 6,900 318 Climbing Tampa TRACON
Mon 03:17:23 PM 27.8833 -82.2000 41° Northeast 184 212 7,100 50 Climbing Tampa TRACON
Mon 03:18:17 PM 27.9333 -82.1667 30° Northeast 198 228 7,000 -50 Descending Tampa TRACON
Mon 03:19:23 PM 27.9833 -82.1333 30° Northeast 194 223 7,000 48 Level Tampa TRACON
Mon 03:20:23 PM 28.0333 -82.1167 16° North 191 220 7,100  Climbing Tampa TRACON
Mon 03:21:23 PM 28.0833 -82.0833 30° Northeast 198 228 7,000  Descending Tampa TRACON
Mon 03:23:14 PM 28.1667 -82.0167 35° Northeast 198 228 7,100 35 Climbing Orlando TRACON
Mon 03:24:14 PM 28.2167 -81.9833 30° Northeast 202 232 7,100 -50 Level Orlando TRACON
Mon 03:25:14 PM 28.2500 -81.9500 41° Northeast 214 246 7,000 -150 Descending Orlando TRACON
Mon 03:26:14 PM 28.2833 -81.8833 60° Northeast 216 249 6,800 -400 Descending Orlando TRACON
Mon 03:27:14 PM 28.3167 -81.8333 53° Northeast 225 259 6,200 -496 Descending Orlando TRACON
Mon 03:28:15 PM 28.3500 -81.7667 60° Northeast 221 254 5,800 -446 Descending Orlando TRACON
Mon 03:29:15 PM 28.3667 -81.7000 74° East 220 253 5,300 -436 Descending Orlando TRACON
Mon 03:34:40 PM 28.4351 -81.3615 74° East 193 222 3,000 -405 Descending FlightAware ADS-B
Mon 03:34:56 PM 28.4368 -81.3405 85° East 192 221 3,000  Level FlightAware ADS-B
Mon 03:35:20 PM 28.4389 -81.3132 85° East 193 222 3,000  Level FlightAware ADS-B
Mon 03:37:08 PM 28.4478 -81.2043 85° East 193 222 3,000  Level FlightAware ADS-B
Mon 03:37:29 PM 28.4497 -81.1840 84° East 192 221 3,000  Level FlightAware ADS-B
Mon 03:37:39 PM 28.4525 -81.1735 73° East 192 221 3,000 -506 Level FlightAware ADS-B
Mon 03:40:03 PM 28.5414 -81.1414 18° North 181 208 1,700 -388 Descending FlightAware ADS-B
Mon 03:43:35 PM 28.5613 -81.2886 279° West 134 154 700 -323 Descending FlightAware ADS-B
Mon 03:44:23 PM 28.5500 -81.3167 279° West 106 122 300 -500 Descending Orlando TRACON
Mon 03:46:00 PM 28.5333 -81.3167 247° West  Level FlightAware Approximate

Login

Don't have an account? Register now (free) for customized features, flight alerts, and more!